createdAt,value
2023-03-19T00:01:33.564Z,101081.75
2023-03-19T00:04:03.117Z,101083.31
2023-03-19T00:06:32.372Z,101088.92
2023-03-19T00:09:01.678Z,101081.52
2023-03-19T00:11:30.938Z,101085.47
2023-03-19T00:14:00.696Z,101090.02
2023-03-19T00:16:29.993Z,101096.35
2023-03-19T00:18:59.219Z,101102.56
2023-03-19T00:21:30.619Z,101090.47
2023-03-19T00:24:01.988Z,101097.20
2023-03-19T00:26:32.370Z,101097.06
2023-03-19T00:29:02.674Z,101097.69
2023-03-19T00:31:32.112Z,101091.48
2023-03-19T00:34:01.852Z,101100.20
2023-03-19T00:36:31.434Z,101101.27
2023-03-19T00:39:01.157Z,101101.39
2023-03-19T00:41:30.357Z,101098.64
2023-03-19T00:44:00.318Z,101098.86
2023-03-19T00:46:31.407Z,101100.17
2023-03-19T00:49:01.472Z,101098.64
2023-03-19T00:51:30.704Z,101099.70
2023-03-19T00:53:59.925Z,101105.81
2023-03-19T00:56:29.424Z,101112.73
2023-03-19T00:58:58.979Z,101110.00
2023-03-19T01:01:28.533Z,101109.17
2023-03-19T01:03:59.099Z,101105.81
2023-03-19T01:06:28.558Z,101112.78
2023-03-19T01:08:58.047Z,101108.24
2023-03-19T01:11:27.396Z,101112.90
2023-03-19T01:13:56.630Z,101116.59
2023-03-19T01:16:26.412Z,101111.33
2023-03-19T01:18:55.982Z,101116.23
2023-03-19T01:21:25.969Z,101116.72
2023-03-19T01:23:55.954Z,101111.45
2023-03-19T01:26:26.233Z,101111.07
2023-03-19T01:28:59.422Z,101112.75
2023-03-19T01:31:29.239Z,101114.27
2023-03-19T01:34:06.591Z,101115.70
2023-03-19T01:36:40.234Z,101110.33
2023-03-19T01:39:11.730Z,101119.52
2023-03-19T01:41:41.159Z,101123.03
2023-03-19T01:44:33.471Z,101119.09
2023-03-19T01:47:22.549Z,101114.78
2023-03-19T01:50:13.054Z,101118.84
2023-03-19T01:52:43.250Z,101115.28
2023-03-19T01:55:14.315Z,101118.75
2023-03-19T01:57:48.277Z,101119.95
2023-03-19T02:00:28.713Z,101120.06
2023-03-19T02:03:02.188Z,101126.64
2023-03-19T02:05:46.217Z,101124.95
2023-03-19T02:08:17.221Z,101126.59
2023-03-19T02:10:48.188Z,101129.11
2023-03-19T02:13:18.029Z,101135.06
2023-03-19T02:15:47.708Z,101131.64
2023-03-19T02:18:17.430Z,101131.97
2023-03-19T02:21:08.526Z,101128.03
2023-03-19T02:24:11.868Z,101129.35
2023-03-19T02:26:46.467Z,101136.04
2023-03-19T02:29:15.858Z,101141.17
2023-03-19T02:31:47.303Z,101141.06
2023-03-19T02:34:25.994Z,101142.72
2023-03-19T02:37:02.423Z,101142.28
2023-03-19T02:39:43.612Z,101141.17
2023-03-19T02:42:15.926Z,101145.07
2023-03-19T02:44:46.275Z,101140.20
2023-03-19T02:47:15.723Z,101142.19
2023-03-19T02:49:46.267Z,101145.48
2023-03-19T02:52:15.638Z,101139.55
2023-03-19T02:54:45.305Z,101137.64
2023-03-19T02:57:14.707Z,101138.11
2023-03-19T02:59:44.274Z,101141.06
2023-03-19T03:02:14.226Z,101142.43
2023-03-19T03:04:43.839Z,101138.25
2023-03-19T03:07:13.135Z,101145.03
2023-03-19T03:09:42.581Z,101151.02
2023-03-19T03:12:12.129Z,101148.75
2023-03-19T03:14:41.938Z,101153.86
2023-03-19T03:17:11.294Z,101144.02
2023-03-19T03:19:40.688Z,101139.39
2023-03-19T03:22:10.064Z,101140.55
2023-03-19T03:24:39.378Z,101141.95
2023-03-19T03:27:09.570Z,101135.11
2023-03-19T03:29:38.799Z,101140.25
2023-03-19T03:32:09.184Z,101146.13
2023-03-19T03:34:38.425Z,101145.49
2023-03-19T03:37:09.386Z,101146.13
2023-03-19T03:39:38.629Z,101143.08
2023-03-19T03:42:08.386Z,101147.43
2023-03-19T03:44:38.347Z,101152.73
2023-03-19T03:47:08.163Z,101154.15
2023-03-19T03:49:37.513Z,101151.24
2023-03-19T03:52:08.510Z,101153.61
2023-03-19T03:54:37.939Z,101155.07
2023-03-19T03:57:08.093Z,101154.05
2023-03-19T03:59:37.488Z,101156.20
2023-03-19T04:02:07.488Z,101151.84
2023-03-19T04:04:37.255Z,101154.28
2023-03-19T04:07:06.832Z,101155.61
2023-03-19T04:09:37.897Z,101154.45
2023-03-19T04:12:07.470Z,101162.47
2023-03-19T04:14:37.789Z,101155.13
2023-03-19T04:17:07.751Z,101155.83
2023-03-19T04:19:37.192Z,101156.92
2023-03-19T04:22:08.149Z,101160.95
2023-03-19T04:24:37.787Z,101153.62
2023-03-19T04:27:08.566Z,101153.91
2023-03-19T04:29:38.268Z,101153.60
2023-03-19T04:32:08.821Z,101148.32
2023-03-19T04:34:38.611Z,101147.38
2023-03-19T04:37:09.663Z,101144.12
2023-03-19T04:39:40.609Z,101145.03
2023-03-19T04:42:10.090Z,101145.90
2023-03-19T04:44:41.048Z,101153.55
2023-03-19T04:47:11.419Z,101155.58
2023-03-19T04:49:42.535Z,101154.11
2023-03-19T04:52:12.117Z,101156.38
2023-03-19T04:54:42.053Z,101153.86
2023-03-19T04:57:11.428Z,101156.03
2023-03-19T04:59:42.083Z,101158.05
2023-03-19T05:02:12.827Z,101168.33
2023-03-19T05:04:42.974Z,101171.68
2023-03-19T05:07:14.146Z,101179.54
2023-03-19T05:09:44.007Z,101179.15
2023-03-19T05:12:14.505Z,101185.14
2023-03-19T05:14:45.521Z,101189.63
2023-03-19T05:17:22.586Z,101194.91
2023-03-19T05:19:57.022Z,101196.56
2023-03-19T05:22:27.410Z,101201.80
2023-03-19T05:24:57.761Z,101203.94
2023-03-19T05:27:29.242Z,101195.36
2023-03-19T05:30:08.027Z,101203.52
2023-03-19T05:32:59.688Z,101204.47
2023-03-19T05:35:37.611Z,101206.20
2023-03-19T05:38:09.807Z,101208.25
2023-03-19T05:40:41.036Z,101213.64
2023-03-19T05:43:13.124Z,101210.66
2023-03-19T05:45:43.582Z,101208.23
2023-03-19T05:48:14.527Z,101210.39
2023-03-19T05:50:45.223Z,101213.67
2023-03-19T05:53:16.430Z,101218.80
2023-03-19T05:55:47.499Z,101217.40
2023-03-19T05:58:17.097Z,101224.63
2023-03-19T06:00:48.818Z,101229.35
2023-03-19T06:03:18.327Z,101234.48
2023-03-19T06:05:53.851Z,101235.70
2023-03-19T06:08:24.791Z,101235.30
2023-03-19T06:11:02.009Z,101240.16
2023-03-19T06:13:31.337Z,101240.91
2023-03-19T06:16:02.764Z,101248.20
2023-03-19T06:18:40.006Z,101247.55
2023-03-19T06:21:10.986Z,101257.30
2023-03-19T06:23:40.952Z,101259.66
2023-03-19T06:26:12.115Z,101266.61
2023-03-19T06:28:43.039Z,101273.05
2023-03-19T06:31:12.861Z,101272.17
2023-03-19T06:33:43.910Z,101266.98
2023-03-19T06:36:13.888Z,101269.45
2023-03-19T06:38:43.247Z,101280.09
2023-03-19T06:41:13.053Z,101286.70
2023-03-19T06:43:43.102Z,101280.96
2023-03-19T06:46:13.203Z,101282.58
2023-03-19T06:48:42.424Z,101280.60
2023-03-19T06:51:11.722Z,101282.92
2023-03-19T06:53:41.100Z,101284.44
2023-03-19T06:56:10.611Z,101283.05
2023-03-19T06:58:39.848Z,101289.78
2023-03-19T07:01:09.355Z,101290.04
2023-03-19T07:03:38.819Z,101287.21
2023-03-19T07:06:08.202Z,101289.42
2023-03-19T07:08:37.747Z,101296.38
2023-03-19T07:11:07.984Z,101300.84
2023-03-19T07:13:38.056Z,101304.80
2023-03-19T07:16:07.932Z,101306.22
2023-03-19T07:18:37.868Z,101311.20
2023-03-19T07:21:07.184Z,101312.00
2023-03-19T07:23:36.758Z,101313.91
2023-03-19T07:26:06.414Z,101315.84
2023-03-19T07:28:36.595Z,101320.59
2023-03-19T07:31:07.087Z,101322.95
2023-03-19T07:33:36.831Z,101330.27
2023-03-19T07:36:07.247Z,101329.41
2023-03-19T07:38:36.753Z,101334.09
2023-03-19T07:41:06.243Z,101334.66
2023-03-19T07:43:36.082Z,101339.19
2023-03-19T07:46:06.444Z,101338.91
2023-03-19T07:48:36.456Z,101339.86
2023-03-19T07:51:05.984Z,101339.61
2023-03-19T07:53:35.498Z,101343.21
2023-03-19T07:56:05.058Z,101343.55
2023-03-19T07:58:34.315Z,101345.60
2023-03-19T08:01:03.559Z,101342.80
2023-03-19T08:03:33.347Z,101340.35
2023-03-19T08:06:03.938Z,101345.85
2023-03-19T08:08:34.997Z,101357.67
2023-03-19T08:11:05.034Z,101355.32
2023-03-19T08:13:34.738Z,101360.02
2023-03-19T08:16:04.267Z,101354.31
2023-03-19T08:18:33.892Z,101355.97
2023-03-19T08:21:04.063Z,101362.45
2023-03-19T08:23:33.356Z,101364.16
2023-03-19T08:26:02.974Z,101371.66
2023-03-19T08:28:32.258Z,101365.37
2023-03-19T08:31:10.242Z,101372.37
2023-03-19T08:33:39.988Z,101370.60
2023-03-19T08:36:12.354Z,101367.85
2023-03-19T08:38:42.517Z,101373.78
2023-03-19T08:41:11.951Z,101375.13
2023-03-19T08:43:41.229Z,101377.27
2023-03-19T08:46:11.154Z,101386.13
2023-03-19T08:48:41.581Z,101383.53
2023-03-19T08:51:11.593Z,101391.14
2023-03-19T08:53:41.519Z,101393.52
2023-03-19T08:56:10.992Z,101396.14
2023-03-19T08:58:42.183Z,101396.05
2023-03-19T09:01:14.086Z,101393.20
2023-03-19T09:03:45.370Z,101393.92
2023-03-19T09:06:15.004Z,101394.16
2023-03-19T09:08:45.110Z,101397.16
2023-03-19T09:11:18.081Z,101397.02
2023-03-19T09:13:47.366Z,101395.11
2023-03-19T09:16:17.645Z,101397.63
2023-03-19T09:18:46.995Z,101397.17
2023-03-19T09:21:16.537Z,101398.49
2023-03-19T09:23:45.969Z,101400.06
2023-03-19T09:26:15.487Z,101404.49
2023-03-19T09:28:44.718Z,101409.83
2023-03-19T09:31:14.048Z,101407.28
2023-03-19T09:33:43.384Z,101421.33
2023-03-19T09:36:13.331Z,101426.66
2023-03-19T09:38:42.729Z,101434.82
2023-03-19T09:41:17.962Z,101434.95
2023-03-19T09:44:05.633Z,101434.83
2023-03-19T09:46:42.720Z,101447.23
2023-03-19T09:49:27.613Z,101445.20
2023-03-19T09:52:09.686Z,101455.14
2023-03-19T09:54:42.274Z,101458.02
2023-03-19T09:57:13.785Z,101463.40
2023-03-19T09:59:42.542Z,101462.79
2023-03-19T10:02:32.486Z,101461.59
2023-03-19T10:05:13.705Z,101464.22
2023-03-19T10:07:58.270Z,101469.73
2023-03-19T10:10:33.481Z,101471.98
2023-03-19T10:13:11.747Z,101469.64
2023-03-19T10:15:43.629Z,101474.73
2023-03-19T10:18:20.897Z,101477.89
2023-03-19T10:21:05.277Z,101475.58
2023-03-19T10:23:57.923Z,101477.48
2023-03-19T10:26:34.473Z,101483.98
2023-03-19T10:29:07.045Z,101484.13
2023-03-19T10:31:46.740Z,101483.75
2023-03-19T10:34:24.644Z,101488.17
2023-03-19T10:37:06.554Z,101493.23
2023-03-19T10:39:37.770Z,101494.05
2023-03-19T10:42:22.551Z,101490.02
2023-03-19T10:45:07.100Z,101496.50
2023-03-19T10:47:41.180Z,101498.18
2023-03-19T10:50:13.691Z,101501.77
2023-03-19T10:52:42.253Z,101501.14
2023-03-19T10:55:21.264Z,101503.19
2023-03-19T10:57:52.070Z,101509.80
2023-03-19T11:00:27.016Z,101516.11
2023-03-19T11:02:59.190Z,101520.83
2023-03-19T11:05:31.944Z,101526.59
2023-03-19T11:08:07.376Z,101519.90
2023-03-19T11:10:37.694Z,101518.85
2023-03-19T11:13:10.063Z,101518.77
2023-03-19T11:15:40.439Z,101524.53
2023-03-19T11:18:15.684Z,101528.42
2023-03-19T11:20:48.052Z,101527.78
2023-03-19T11:23:18.931Z,101529.52
2023-03-19T11:25:52.985Z,101526.30
2023-03-19T11:28:26.423Z,101523.16
2023-03-19T11:31:22.610Z,101524.83
2023-03-19T11:34:27.710Z,101525.67
2023-03-19T11:37:15.365Z,101529.56
2023-03-19T11:40:10.215Z,101529.63
2023-03-19T11:42:48.939Z,101530.31
2023-03-19T11:45:31.572Z,101527.45
2023-03-19T11:48:37.436Z,101525.61
2023-03-19T11:51:27.813Z,101535.36
2023-03-19T11:54:05.885Z,101543.81
2023-03-19T11:57:00.052Z,101542.44
2023-03-19T12:00:04.244Z,101538.44
2023-03-19T12:03:00.471Z,101533.30
2023-03-19T12:05:48.232Z,101535.47
2023-03-19T12:08:32.788Z,101535.67
2023-03-19T12:11:27.936Z,101533.69
2023-03-19T12:14:18.711Z,101532.08
2023-03-19T12:17:04.694Z,101526.95
2023-03-19T12:19:55.479Z,101527.51
2023-03-19T12:22:30.886Z,101525.47
2023-03-19T12:25:06.035Z,101526.51
2023-03-19T12:28:06.117Z,101526.56
2023-03-19T12:30:43.476Z,101522.76
2023-03-19T12:33:32.558Z,101526.86
2023-03-19T12:36:02.305Z,101525.19
2023-03-19T12:38:51.307Z,101531.96
2023-03-19T12:41:23.681Z,101528.73
2023-03-19T12:43:53.948Z,101532.80
2023-03-19T12:46:41.900Z,101529.02
2023-03-19T12:49:31.651Z,101527.34
2023-03-19T12:52:07.165Z,101528.11
2023-03-19T12:54:39.437Z,101530.80
2023-03-19T12:57:29.785Z,101528.44
2023-03-19T13:00:02.962Z,101527.95
2023-03-19T13:02:41.650Z,101530.73
2023-03-19T13:05:21.194Z,101530.90
2023-03-19T13:08:02.337Z,101530.93
2023-03-19T13:10:35.638Z,101536.50
2023-03-19T13:13:24.303Z,101537.08
2023-03-19T13:15:56.908Z,101538.37
2023-03-19T13:18:32.406Z,101539.30
2023-03-19T13:21:16.787Z,101537.64
2023-03-19T13:23:47.889Z,101534.59
2023-03-19T13:26:17.757Z,101536.20
2023-03-19T13:29:18.141Z,101540.80
2023-03-19T13:31:47.480Z,101542.44
2023-03-19T13:34:22.000Z,101554.20
2023-03-19T13:37:02.861Z,101551.75
2023-03-19T13:39:34.480Z,101556.32
2023-03-19T13:42:27.377Z,101556.93
2023-03-19T13:45:16.951Z,101554.89
2023-03-19T13:47:48.180Z,101559.41
2023-03-19T13:50:23.688Z,101546.77
2023-03-19T13:52:57.430Z,101545.94
2023-03-19T13:55:31.300Z,101537.58
2023-03-19T13:58:14.434Z,101546.07
2023-03-19T14:00:47.192Z,101544.55
2023-03-19T14:03:22.564Z,101538.33
2023-03-19T14:05:54.265Z,101548.09
2023-03-19T14:08:32.669Z,101551.66
2023-03-19T14:11:04.694Z,101557.51
2023-03-19T14:13:41.926Z,101555.16
2023-03-19T14:16:26.205Z,101565.95
2023-03-19T14:18:59.540Z,101570.03
2023-03-19T14:21:47.152Z,101571.53
2023-03-19T14:27:18.780Z,101581.01
2023-03-19T14:29:48.696Z,101588.87
2023-03-19T14:32:19.573Z,101588.63
2023-03-19T14:34:50.657Z,101593.39
2023-03-19T14:37:32.702Z,101587.88
2023-03-19T14:40:11.173Z,101592.70
2023-03-19T14:42:56.170Z,101594.00
2023-03-19T14:46:01.281Z,101594.88
2023-03-19T14:48:54.895Z,101600.89
2023-03-19T14:51:46.045Z,101599.30
2023-03-19T14:54:27.302Z,101602.80
2023-03-19T14:56:58.057Z,101594.65
2023-03-19T14:59:27.468Z,101602.66
2023-03-19T15:01:57.144Z,101603.50
2023-03-19T15:04:27.232Z,101603.05
2023-03-19T15:06:58.957Z,101601.95
2023-03-19T15:09:31.790Z,101600.58
2023-03-19T15:12:15.198Z,101602.86
2023-03-19T15:15:16.667Z,101603.13
2023-03-19T15:17:54.431Z,101616.81
2023-03-19T15:20:21.803Z,101616.90
2023-03-19T15:23:01.598Z,101622.64
2023-03-19T15:25:31.168Z,101620.23
2023-03-19T15:28:09.859Z,101616.55
2023-03-19T15:30:52.298Z,101628.77
2023-03-19T15:33:37.192Z,101628.18
2023-03-19T15:35:57.240Z,101630.55
2023-03-19T15:38:29.237Z,101631.14
2023-03-19T15:40:58.813Z,101637.65
2023-03-19T15:43:28.353Z,101637.60
2023-03-19T15:45:57.846Z,101638.88
2023-03-19T15:48:42.385Z,101641.17
2023-03-19T15:51:12.555Z,101645.25
2023-03-19T15:53:42.479Z,101643.89
2023-03-19T15:56:14.024Z,101642.66
2023-03-19T15:58:50.778Z,101645.28
2023-03-19T16:01:21.611Z,101650.16
2023-03-19T16:03:54.385Z,101656.44
2023-03-19T16:06:27.287Z,101649.56
2023-03-19T16:08:57.958Z,101652.31
2023-03-19T16:11:34.023Z,101651.41
2023-03-19T16:14:18.595Z,101665.15
2023-03-19T16:16:49.178Z,101661.13
2023-03-19T16:19:38.774Z,101658.17
2023-03-19T16:22:17.426Z,101663.77
2023-03-19T16:24:47.603Z,101666.84
2023-03-19T16:27:22.631Z,101677.13
2023-03-19T16:29:59.658Z,101686.81
2023-03-19T16:32:30.918Z,101692.76
2023-03-19T16:35:09.551Z,101697.68
2023-03-19T16:37:44.169Z,101707.78
2023-03-19T16:40:16.620Z,101705.78
2023-03-19T16:42:54.327Z,101705.33
2023-03-19T16:45:31.755Z,101715.41
2023-03-19T16:48:06.240Z,101721.23
2023-03-19T16:50:37.669Z,101728.50
2023-03-19T16:53:16.061Z,101727.88
2023-03-19T16:55:45.396Z,101723.45
2023-03-19T16:58:20.058Z,101723.73
2023-03-19T17:00:49.688Z,101730.26
2023-03-19T17:03:20.001Z,101737.88
2023-03-19T17:05:49.790Z,101744.48
2023-03-19T17:08:20.781Z,101748.45
2023-03-19T17:10:52.268Z,101750.52
2023-03-19T17:13:28.621Z,101763.65
2023-03-19T17:16:04.515Z,101768.92
2023-03-19T17:18:36.691Z,101767.23
2023-03-19T17:21:26.238Z,101767.52
2023-03-19T17:23:56.498Z,101772.00
2023-03-19T17:26:28.494Z,101782.05
2023-03-19T17:28:58.026Z,101781.09
2023-03-19T17:31:30.213Z,101786.91
2023-03-19T17:34:07.663Z,101798.54
2023-03-19T17:36:37.285Z,101795.36
2023-03-19T17:39:07.762Z,101791.32
2023-03-19T17:41:38.877Z,101808.59
2023-03-19T17:44:08.629Z,101804.64
2023-03-19T17:46:41.787Z,101806.14
2023-03-19T17:49:13.714Z,101807.91
2023-03-19T17:51:43.125Z,101813.54
2023-03-19T17:54:13.792Z,101820.39
2023-03-19T17:56:44.212Z,101813.36
2023-03-19T17:59:13.729Z,101815.44
2023-03-19T18:01:43.713Z,101821.23
2023-03-19T18:04:18.703Z,101818.04
2023-03-19T18:06:51.135Z,101832.48
2023-03-19T18:09:23.057Z,101842.12
2023-03-19T18:11:52.542Z,101838.77
2023-03-19T18:14:22.102Z,101833.33
2023-03-19T18:16:51.969Z,101846.15
2023-03-19T18:19:24.504Z,101853.11
2023-03-19T18:21:53.331Z,101849.41
2023-03-19T18:24:22.513Z,101850.63
2023-03-19T18:26:52.685Z,101856.19
2023-03-19T18:29:21.936Z,101860.45
2023-03-19T18:31:52.382Z,101862.03
2023-03-19T18:34:21.816Z,101864.07
2023-03-19T18:36:51.538Z,101868.01
2023-03-19T18:39:21.468Z,101868.01
2023-03-19T18:41:51.450Z,101885.46
2023-03-19T18:44:21.063Z,101877.95
2023-03-19T18:46:50.576Z,101888.27
2023-03-19T18:49:25.511Z,101887.81
2023-03-19T18:52:02.669Z,101888.63
2023-03-19T18:54:26.908Z,101892.38
2023-03-19T18:56:57.212Z,101895.98
2023-03-19T18:59:32.609Z,101901.51
2023-03-19T19:02:28.021Z,101901.88
2023-03-19T19:04:58.266Z,101905.35
2023-03-19T19:07:27.914Z,101906.21
2023-03-19T19:09:57.788Z,101909.20
2023-03-19T19:12:28.290Z,101916.12
2023-03-19T19:14:58.868Z,101912.37
2023-03-19T19:17:29.741Z,101915.73
2023-03-19T19:19:59.057Z,101921.33
2023-03-19T19:22:30.041Z,101918.71
2023-03-19T19:24:59.402Z,101922.33
2023-03-19T19:27:28.839Z,101918.31
2023-03-19T19:29:59.842Z,101916.62
2023-03-19T19:32:31.285Z,101928.60
2023-03-19T19:35:00.648Z,101933.62
2023-03-19T19:37:30.124Z,101928.17
2023-03-19T19:39:59.392Z,101935.10
2023-03-19T19:42:29.281Z,101932.39
2023-03-19T19:44:59.097Z,101934.64
2023-03-19T19:47:28.775Z,101934.13
2023-03-19T19:49:58.204Z,101935.76
2023-03-19T19:52:27.663Z,101938.15
2023-03-19T19:54:56.961Z,101942.52
2023-03-19T19:57:26.293Z,101942.26
2023-03-19T19:59:56.364Z,101946.53
2023-03-19T20:02:29.957Z,101950.63
2023-03-19T20:04:59.838Z,101946.98
2023-03-19T20:07:29.868Z,101943.73
2023-03-19T20:09:59.192Z,101954.48
2023-03-19T20:12:31.958Z,101955.11
2023-03-19T20:15:01.463Z,101955.25
2023-03-19T20:17:30.738Z,101957.89
2023-03-19T20:20:00.516Z,101963.38
2023-03-19T20:22:29.886Z,101964.45
2023-03-19T20:24:59.511Z,101963.91
2023-03-19T20:27:31.520Z,101974.41
2023-03-19T20:30:01.429Z,101983.83
2023-03-19T20:32:33.161Z,101983.83
2023-03-19T20:35:04.116Z,101985.42
2023-03-19T20:37:33.526Z,101993.29
2023-03-19T20:40:03.189Z,101991.38
2023-03-19T20:42:35.248Z,101991.86
2023-03-19T20:45:06.051Z,101993.91
2023-03-19T20:47:35.414Z,101987.06
2023-03-19T20:50:10.231Z,101998.49
2023-03-19T20:52:38.581Z,101990.46
2023-03-19T20:55:09.609Z,101993.09
2023-03-19T20:57:38.954Z,101993.20
2023-03-19T21:00:22.440Z,101989.92
2023-03-19T21:02:53.594Z,101986.13
2023-03-19T21:05:23.767Z,101992.38
2023-03-19T21:07:54.777Z,101996.31
2023-03-19T21:10:35.799Z,101991.07
2023-03-19T21:13:05.452Z,101993.29
2023-03-19T21:15:35.266Z,101986.00
2023-03-19T21:18:05.020Z,101984.81
2023-03-19T21:20:35.708Z,101989.16
2023-03-19T21:23:26.555Z,101983.59
2023-03-19T21:25:56.211Z,101985.92
2023-03-19T21:28:34.842Z,101992.48
2023-03-19T21:31:04.295Z,101993.99
2023-03-19T21:33:36.482Z,101990.46
2023-03-19T21:36:07.001Z,101979.49
2023-03-19T21:38:36.401Z,101980.27
2023-03-19T21:41:11.408Z,101981.03
2023-03-19T21:43:47.669Z,101981.98
2023-03-19T21:46:24.603Z,101987.22
2023-03-19T21:48:49.019Z,101978.27
2023-03-19T21:51:18.261Z,101983.58
2023-03-19T21:53:47.918Z,101980.75
2023-03-19T21:56:23.055Z,101987.14
2023-03-19T21:58:57.299Z,101984.89
2023-03-19T22:01:29.474Z,101987.51
2023-03-19T22:04:01.825Z,101985.09
2023-03-19T22:06:43.065Z,101990.17
2023-03-19T22:09:14.997Z,101984.27
2023-03-19T22:11:46.409Z,101987.34
2023-03-19T22:14:32.283Z,101989.42
2023-03-19T22:17:10.941Z,101989.51
2023-03-19T22:19:41.423Z,101991.88
2023-03-19T22:22:12.404Z,101989.42
2023-03-19T22:24:41.880Z,101982.47
2023-03-19T22:27:19.525Z,101993.56
2023-03-19T22:29:51.616Z,101994.84
2023-03-19T22:32:25.693Z,101996.35
2023-03-19T22:34:57.568Z,101998.44
2023-03-19T22:37:29.899Z,102006.67
2023-03-19T22:39:59.120Z,102012.29
2023-03-19T22:42:28.552Z,102013.02
2023-03-19T22:44:57.850Z,102008.77
2023-03-19T22:47:29.042Z,102008.48
2023-03-19T22:49:58.346Z,102005.57
2023-03-19T22:52:29.142Z,102010.81
2023-03-19T22:54:58.554Z,102014.83
2023-03-19T22:57:27.873Z,102017.83
2023-03-19T22:59:57.189Z,102018.77
2023-03-19T23:02:27.166Z,102019.51
2023-03-19T23:04:56.397Z,102023.36
2023-03-19T23:07:26.137Z,102025.11
2023-03-19T23:09:56.734Z,102026.47
2023-03-19T23:12:26.634Z,102038.88
2023-03-19T23:14:56.745Z,102043.80
2023-03-19T23:17:25.968Z,102049.98
2023-03-19T23:19:55.661Z,102048.06
2023-03-19T23:22:25.687Z,102044.53
2023-03-19T23:24:55.467Z,102041.14
2023-03-19T23:27:26.727Z,102041.99
2023-03-19T23:29:56.223Z,102052.80
2023-03-19T23:32:27.066Z,102049.94
2023-03-19T23:35:01.200Z,102041.54
2023-03-19T23:37:29.107Z,102050.42
2023-03-19T23:39:58.543Z,102052.64
2023-03-19T23:42:30.469Z,102043.78
2023-03-19T23:45:01.958Z,102050.13
2023-03-19T23:47:31.775Z,102039.40
2023-03-19T23:50:01.191Z,102042.26
2023-03-19T23:52:30.758Z,102053.42
2023-03-19T23:54:59.953Z,102058.08
2023-03-19T23:57:29.194Z,102051.91
2023-03-19T23:59:58.975Z,102046.73
